sensor_id;sensor_type;location;lat;lon;timestamp;P1;durP1;ratioP1;P2;durP2;ratioP2
78228;SDS011;74448;49.082;9.152;2024-01-15T00:01:59;20.52;;;7.78;;
78228;SDS011;74448;49.082;9.152;2024-01-15T00:04:26;15.75;;;6.95;;
78228;SDS011;74448;49.082;9.152;2024-01-15T00:06:52;18.48;;;7.70;;
78228;SDS011;74448;49.082;9.152;2024-01-15T00:09:19;23.30;;;8.20;;
78228;SDS011;74448;49.082;9.152;2024-01-15T00:11:46;23.77;;;8.98;;
78228;SDS011;74448;49.082;9.152;2024-01-15T00:14:12;22.05;;;9.27;;
78228;SDS011;74448;49.082;9.152;2024-01-15T00:16:41;20.27;;;7.88;;
78228;SDS011;74448;49.082;9.152;2024-01-15T00:19:07;21.05;;;8.13;;
78228;SDS011;74448;49.082;9.152;2024-01-15T00:21:34;19.42;;;7.93;;
78228;SDS011;74448;49.082;9.152;2024-01-15T00:24:01;20.75;;;8.13;;
78228;SDS011;74448;49.082;9.152;2024-01-15T00:26:28;15.70;;;5.95;;
78228;SDS011;74448;49.082;9.152;2024-01-15T00:28:55;21.10;;;8.98;;
78228;SDS011;74448;49.082;9.152;2024-01-15T00:31:21;17.15;;;8.02;;
78228;SDS011;74448;49.082;9.152;2024-01-15T00:33:48;19.63;;;7.43;;
78228;SDS011;74448;49.082;9.152;2024-01-15T00:36:15;19.08;;;8.93;;
78228;SDS011;74448;49.082;9.152;2024-01-15T00:38:46;18.00;;;7.55;;
78228;SDS011;74448;49.082;9.152;2024-01-15T00:41:14;18.00;;;7.97;;
78228;SDS011;74448;49.082;9.152;2024-01-15T00:43:41;15.45;;;7.45;;
78228;SDS011;74448;49.082;9.152;2024-01-15T00:46:07;19.55;;;7.85;;
78228;SDS011;74448;49.082;9.152;2024-01-15T00:48:34;18.65;;;7.80;;
78228;SDS011;74448;49.082;9.152;2024-01-15T00:51:01;21.05;;;8.25;;
78228;SDS011;74448;49.082;9.152;2024-01-15T00:53:28;18.02;;;7.18;;
78228;SDS011;74448;49.082;9.152;2024-01-15T00:55:54;18.17;;;7.22;;
78228;SDS011;74448;49.082;9.152;2024-01-15T00:58:21;15.88;;;7.10;;
78228;SDS011;74448;49.082;9.152;2024-01-15T01:00:48;20.02;;;8.32;;
78228;SDS011;74448;49.082;9.152;2024-01-15T01:03:15;22.38;;;8.65;;
78228;SDS011;74448;49.082;9.152;2024-01-15T01:05:42;21.90;;;7.28;;
78228;SDS011;74448;49.082;9.152;2024-01-15T01:08:10;20.67;;;8.20;;
78228;SDS011;74448;49.082;9.152;2024-01-15T01:10:37;19.13;;;7.85;;
78228;SDS011;74448;49.082;9.152;2024-01-15T01:13:03;18.27;;;8.15;;
78228;SDS011;74448;49.082;9.152;2024-01-15T01:15:30;20.30;;;7.50;;
78228;SDS011;74448;49.082;9.152;2024-01-15T01:17:57;16.05;;;6.68;;
78228;SDS011;74448;49.082;9.152;2024-01-15T01:20:24;20.80;;;8.05;;
78228;SDS011;74448;49.082;9.152;2024-01-15T01:22:50;18.33;;;8.48;;
78228;SDS011;74448;49.082;9.152;2024-01-15T01:25:17;20.13;;;8.85;;
78228;SDS011;74448;49.082;9.152;2024-01-15T01:27:44;18.83;;;7.60;;
78228;SDS011;74448;49.082;9.152;2024-01-15T01:30:10;21.85;;;7.85;;
78228;SDS011;74448;49.082;9.152;2024-01-15T01:32:37;16.58;;;8.15;;
78228;SDS011;74448;49.082;9.152;2024-01-15T01:35:04;21.92;;;7.68;;
78228;SDS011;74448;49.082;9.152;2024-01-15T01:37:31;17.73;;;7.00;;
78228;SDS011;74448;49.082;9.152;2024-01-15T01:39:57;19.38;;;7.70;;
78228;SDS011;74448;49.082;9.152;2024-01-15T01:42:24;17.80;;;7.97;;
78228;SDS011;74448;49.082;9.152;2024-01-15T01:44:50;18.02;;;6.63;;
78228;SDS011;74448;49.082;9.152;2024-01-15T01:47:17;20.55;;;7.43;;
78228;SDS011;74448;49.082;9.152;2024-01-15T01:49:44;20.63;;;8.07;;
78228;SDS011;74448;49.082;9.152;2024-01-15T01:52:12;17.92;;;7.82;;
78228;SDS011;74448;49.082;9.152;2024-01-15T01:54:39;17.17;;;7.53;;
78228;SDS011;74448;49.082;9.152;2024-01-15T01:57:07;16.13;;;7.30;;
78228;SDS011;74448;49.082;9.152;2024-01-15T01:59:34;18.08;;;6.43;;
78228;SDS011;74448;49.082;9.152;2024-01-15T02:02:02;17.58;;;7.80;;
78228;SDS011;74448;49.082;9.152;2024-01-15T02:04:31;18.90;;;7.30;;
78228;SDS011;74448;49.082;9.152;2024-01-15T02:06:59;19.92;;;7.05;;
78228;SDS011;74448;49.082;9.152;2024-01-15T02:09:26;18.70;;;8.05;;
78228;SDS011;74448;49.082;9.152;2024-01-15T02:11:53;18.27;;;6.80;;
78228;SDS011;74448;49.082;9.152;2024-01-15T02:14:20;20.30;;;7.38;;
78228;SDS011;74448;49.082;9.152;2024-01-15T02:16:48;16.60;;;7.45;;
78228;SDS011;74448;49.082;9.152;2024-01-15T02:19:15;18.77;;;7.82;;
78228;SDS011;74448;49.082;9.152;2024-01-15T02:21:43;16.38;;;6.70;;
78228;SDS011;74448;49.082;9.152;2024-01-15T02:24:10;18.75;;;7.10;;
78228;SDS011;74448;49.082;9.152;2024-01-15T02:26:37;17.75;;;6.78;;
78228;SDS011;74448;49.082;9.152;2024-01-15T02:29:05;20.80;;;7.97;;
78228;SDS011;74448;49.082;9.152;2024-01-15T02:31:36;15.38;;;6.35;;
78228;SDS011;74448;49.082;9.152;2024-01-15T02:34:03;16.17;;;6.20;;
78228;SDS011;74448;49.082;9.152;2024-01-15T02:36:30;23.98;;;7.82;;
78228;SDS011;74448;49.082;9.152;2024-01-15T02:38:56;20.17;;;8.35;;
78228;SDS011;74448;49.082;9.152;2024-01-15T02:41:23;14.90;;;6.50;;
78228;SDS011;74448;49.082;9.152;2024-01-15T02:43:49;17.17;;;6.80;;
78228;SDS011;74448;49.082;9.152;2024-01-15T02:46:16;14.20;;;6.80;;
78228;SDS011;74448;49.082;9.152;2024-01-15T02:48:43;17.23;;;6.65;;
78228;SDS011;74448;49.082;9.152;2024-01-15T02:51:10;17.33;;;7.43;;
78228;SDS011;74448;49.082;9.152;2024-01-15T02:53:37;21.38;;;6.25;;
78228;SDS011;74448;49.082;9.152;2024-01-15T02:56:03;15.60;;;7.13;;
78228;SDS011;74448;49.082;9.152;2024-01-15T02:58:30;17.55;;;6.90;;
78228;SDS011;74448;49.082;9.152;2024-01-15T03:00:57;15.75;;;6.70;;
78228;SDS011;74448;49.082;9.152;2024-01-15T03:03:24;14.57;;;6.43;;
78228;SDS011;74448;49.082;9.152;2024-01-15T03:05:51;14.80;;;6.50;;
78228;SDS011;74448;49.082;9.152;2024-01-15T03:08:18;17.75;;;7.30;;
78228;SDS011;74448;49.082;9.152;2024-01-15T03:10:45;16.85;;;7.75;;
78228;SDS011;74448;49.082;9.152;2024-01-15T03:13:11;17.70;;;6.57;;
78228;SDS011;74448;49.082;9.152;2024-01-15T03:15:38;13.02;;;6.05;;
78228;SDS011;74448;49.082;9.152;2024-01-15T03:18:05;17.30;;;7.22;;
78228;SDS011;74448;49.082;9.152;2024-01-15T03:20:32;19.98;;;6.70;;
78228;SDS011;74448;49.082;9.152;2024-01-15T03:22:59;16.65;;;6.57;;
78228;SDS011;74448;49.082;9.152;2024-01-15T03:25:25;15.13;;;6.55;;
78228;SDS011;74448;49.082;9.152;2024-01-15T03:27:52;14.13;;;5.78;;
78228;SDS011;74448;49.082;9.152;2024-01-15T03:30:18;14.73;;;6.53;;
78228;SDS011;74448;49.082;9.152;2024-01-15T03:32:45;18.38;;;6.00;;
78228;SDS011;74448;49.082;9.152;2024-01-15T03:35:13;16.63;;;5.82;;
78228;SDS011;74448;49.082;9.152;2024-01-15T03:37:40;14.38;;;6.78;;
78228;SDS011;74448;49.082;9.152;2024-01-15T03:40:07;18.15;;;6.60;;
78228;SDS011;74448;49.082;9.152;2024-01-15T03:42:34;18.20;;;6.65;;
78228;SDS011;74448;49.082;9.152;2024-01-15T03:45:01;16.80;;;5.97;;
78228;SDS011;74448;49.082;9.152;2024-01-15T03:47:28;14.25;;;5.90;;
78228;SDS011;74448;49.082;9.152;2024-01-15T03:49:54;15.25;;;6.68;;
78228;SDS011;74448;49.082;9.152;2024-01-15T03:52:21;15.43;;;6.75;;
78228;SDS011;74448;49.082;9.152;2024-01-15T03:54:48;15.40;;;6.22;;
78228;SDS011;74448;49.082;9.152;2024-01-15T03:57:14;15.95;;;6.55;;
78228;SDS011;74448;49.082;9.152;2024-01-15T03:59:41;12.80;;;6.18;;
78228;SDS011;74448;49.082;9.152;2024-01-15T04:02:08;15.55;;;6.10;;
78228;SDS011;74448;49.082;9.152;2024-01-15T04:04:34;16.73;;;6.78;;
78228;SDS011;74448;49.082;9.152;2024-01-15T04:07:01;14.25;;;6.43;;
78228;SDS011;74448;49.082;9.152;2024-01-15T04:09:28;14.23;;;5.72;;
78228;SDS011;74448;49.082;9.152;2024-01-15T04:11:54;15.10;;;5.53;;
78228;SDS011;74448;49.082;9.152;2024-01-15T04:14:21;13.45;;;6.10;;
78228;SDS011;74448;49.082;9.152;2024-01-15T04:16:48;15.95;;;6.18;;
78228;SDS011;74448;49.082;9.152;2024-01-15T04:19:14;14.48;;;6.15;;
78228;SDS011;74448;49.082;9.152;2024-01-15T04:21:41;14.20;;;5.82;;
78228;SDS011;74448;49.082;9.152;2024-01-15T04:24:07;16.45;;;6.43;;
78228;SDS011;74448;49.082;9.152;2024-01-15T04:26:34;14.82;;;6.07;;
78228;SDS011;74448;49.082;9.152;2024-01-15T04:29:01;14.63;;;6.45;;
78228;SDS011;74448;49.082;9.152;2024-01-15T04:31:27;15.60;;;6.47;;
78228;SDS011;74448;49.082;9.152;2024-01-15T04:33:54;12.48;;;5.85;;
78228;SDS011;74448;49.082;9.152;2024-01-15T04:36:21;13.02;;;5.70;;
78228;SDS011;74448;49.082;9.152;2024-01-15T04:38:48;13.63;;;7.15;;
78228;SDS011;74448;49.082;9.152;2024-01-15T04:41:15;11.40;;;5.57;;
78228;SDS011;74448;49.082;9.152;2024-01-15T04:43:43;14.95;;;5.57;;
78228;SDS011;74448;49.082;9.152;2024-01-15T04:46:09;14.85;;;6.25;;
78228;SDS011;74448;49.082;9.152;2024-01-15T04:48:36;14.60;;;6.03;;
78228;SDS011;74448;49.082;9.152;2024-01-15T04:51:08;17.27;;;6.35;;
78228;SDS011;74448;49.082;9.152;2024-01-15T04:53:35;13.65;;;5.25;;
78228;SDS011;74448;49.082;9.152;2024-01-15T04:56:02;12.95;;;5.88;;
78228;SDS011;74448;49.082;9.152;2024-01-15T04:58:28;11.93;;;5.43;;
78228;SDS011;74448;49.082;9.152;2024-01-15T05:00:55;14.35;;;6.40;;
78228;SDS011;74448;49.082;9.152;2024-01-15T05:05:49;12.38;;;5.20;;
78228;SDS011;74448;49.082;9.152;2024-01-15T05:08:16;15.68;;;6.22;;
78228;SDS011;74448;49.082;9.152;2024-01-15T05:10:42;11.48;;;5.60;;
78228;SDS011;74448;49.082;9.152;2024-01-15T05:13:09;15.43;;;5.63;;
78228;SDS011;74448;49.082;9.152;2024-01-15T05:15:36;10.75;;;4.47;;
78228;SDS011;74448;49.082;9.152;2024-01-15T05:18:02;12.43;;;5.43;;
78228;SDS011;74448;49.082;9.152;2024-01-15T05:20:29;10.93;;;5.30;;
78228;SDS011;74448;49.082;9.152;2024-01-15T05:22:56;14.50;;;6.28;;
78228;SDS011;74448;49.082;9.152;2024-01-15T05:25:22;11.52;;;5.35;;
78228;SDS011;74448;49.082;9.152;2024-01-15T05:27:49;13.52;;;5.80;;
78228;SDS011;74448;49.082;9.152;2024-01-15T05:30:16;11.48;;;5.68;;
78228;SDS011;74448;49.082;9.152;2024-01-15T05:32:43;13.30;;;6.05;;
78228;SDS011;74448;49.082;9.152;2024-01-15T05:35:09;13.15;;;5.18;;
78228;SDS011;74448;49.082;9.152;2024-01-15T05:37:36;13.25;;;5.38;;
78228;SDS011;74448;49.082;9.152;2024-01-15T05:40:03;9.32;;;5.03;;
78228;SDS011;74448;49.082;9.152;2024-01-15T05:42:31;10.48;;;4.93;;
78228;SDS011;74448;49.082;9.152;2024-01-15T05:44:58;10.93;;;4.85;;
78228;SDS011;74448;49.082;9.152;2024-01-15T05:47:26;12.63;;;5.22;;
78228;SDS011;74448;49.082;9.152;2024-01-15T05:49:52;10.80;;;5.38;;
78228;SDS011;74448;49.082;9.152;2024-01-15T05:52:20;8.80;;;4.70;;
78228;SDS011;74448;49.082;9.152;2024-01-15T05:54:48;10.43;;;4.55;;
78228;SDS011;74448;49.082;9.152;2024-01-15T05:57:16;11.55;;;4.45;;
78228;SDS011;74448;49.082;9.152;2024-01-15T05:59:43;14.00;;;5.43;;
78228;SDS011;74448;49.082;9.152;2024-01-15T06:02:11;11.95;;;5.00;;
78228;SDS011;74448;49.082;9.152;2024-01-15T06:04:37;13.45;;;5.13;;
78228;SDS011;74448;49.082;9.152;2024-01-15T06:07:04;11.18;;;5.00;;
78228;SDS011;74448;49.082;9.152;2024-01-15T06:09:31;11.65;;;4.80;;
78228;SDS011;74448;49.082;9.152;2024-01-15T06:11:58;15.27;;;5.53;;
78228;SDS011;74448;49.082;9.152;2024-01-15T06:14:25;12.13;;;5.18;;
78228;SDS011;74448;49.082;9.152;2024-01-15T06:16:52;13.48;;;4.88;;
78228;SDS011;74448;49.082;9.152;2024-01-15T06:19:19;11.15;;;4.70;;
78228;SDS011;74448;49.082;9.152;2024-01-15T06:21:46;12.65;;;5.10;;
78228;SDS011;74448;49.082;9.152;2024-01-15T06:24:12;10.95;;;5.55;;
78228;SDS011;74448;49.082;9.152;2024-01-15T06:26:40;12.95;;;5.53;;
78228;SDS011;74448;49.082;9.152;2024-01-15T06:29:06;12.15;;;5.65;;
78228;SDS011;74448;49.082;9.152;2024-01-15T06:31:34;11.13;;;4.85;;
78228;SDS011;74448;49.082;9.152;2024-01-15T06:34:01;10.70;;;5.07;;
78228;SDS011;74448;49.082;9.152;2024-01-15T06:36:28;11.25;;;4.78;;
78228;SDS011;74448;49.082;9.152;2024-01-15T06:38:55;10.30;;;4.80;;
78228;SDS011;74448;49.082;9.152;2024-01-15T06:41:22;11.43;;;4.95;;
78228;SDS011;74448;49.082;9.152;2024-01-15T06:43:49;10.95;;;4.97;;
78228;SDS011;74448;49.082;9.152;2024-01-15T06:46:21;10.25;;;4.97;;
78228;SDS011;74448;49.082;9.152;2024-01-15T06:48:48;13.38;;;5.63;;
78228;SDS011;74448;49.082;9.152;2024-01-15T06:51:16;13.10;;;5.60;;
78228;SDS011;74448;49.082;9.152;2024-01-15T06:53:43;8.50;;;3.85;;
78228;SDS011;74448;49.082;9.152;2024-01-15T06:56:09;9.90;;;5.53;;
78228;SDS011;74448;49.082;9.152;2024-01-15T06:58:36;10.02;;;4.25;;
78228;SDS011;74448;49.082;9.152;2024-01-15T07:01:03;9.70;;;4.80;;
78228;SDS011;74448;49.082;9.152;2024-01-15T07:03:31;9.70;;;4.40;;
78228;SDS011;74448;49.082;9.152;2024-01-15T07:05:58;8.93;;;4.57;;
78228;SDS011;74448;49.082;9.152;2024-01-15T07:08:25;13.30;;;4.40;;
78228;SDS011;74448;49.082;9.152;2024-01-15T07:10:52;9.88;;;4.32;;
78228;SDS011;74448;49.082;9.152;2024-01-15T07:13:18;9.75;;;5.13;;
78228;SDS011;74448;49.082;9.152;2024-01-15T07:15:45;8.73;;;4.00;;
78228;SDS011;74448;49.082;9.152;2024-01-15T07:18:11;9.52;;;4.55;;
78228;SDS011;74448;49.082;9.152;2024-01-15T07:20:38;11.00;;;4.90;;
78228;SDS011;74448;49.082;9.152;2024-01-15T07:23:05;9.55;;;4.35;;
78228;SDS011;74448;49.082;9.152;2024-01-15T07:25:31;10.25;;;4.57;;
78228;SDS011;74448;49.082;9.152;2024-01-15T07:30:25;9.18;;;4.03;;
78228;SDS011;74448;49.082;9.152;2024-01-15T07:32:52;10.20;;;4.55;;
78228;SDS011;74448;49.082;9.152;2024-01-15T07:35:19;11.52;;;4.70;;
78228;SDS011;74448;49.082;9.152;2024-01-15T07:37:46;9.38;;;4.22;;
78228;SDS011;74448;49.082;9.152;2024-01-15T07:40:12;8.77;;;4.20;;
78228;SDS011;74448;49.082;9.152;2024-01-15T07:42:39;9.40;;;4.07;;
78228;SDS011;74448;49.082;9.152;2024-01-15T07:45:06;8.90;;;4.53;;
78228;SDS011;74448;49.082;9.152;2024-01-15T07:47:33;9.95;;;4.32;;
78228;SDS011;74448;49.082;9.152;2024-01-15T07:50:00;7.97;;;3.78;;
78228;SDS011;74448;49.082;9.152;2024-01-15T07:52:31;13.88;;;4.90;;
78228;SDS011;74448;49.082;9.152;2024-01-15T07:54:58;8.85;;;4.97;;
78228;SDS011;74448;49.082;9.152;2024-01-15T07:57:27;9.40;;;4.13;;
78228;SDS011;74448;49.082;9.152;2024-01-15T07:59:54;9.73;;;5.10;;
78228;SDS011;74448;49.082;9.152;2024-01-15T08:02:21;9.00;;;4.32;;
78228;SDS011;74448;49.082;9.152;2024-01-15T08:04:48;10.00;;;4.53;;
78228;SDS011;74448;49.082;9.152;2024-01-15T08:07:14;10.93;;;5.00;;
78228;SDS011;74448;49.082;9.152;2024-01-15T08:09:41;11.27;;;4.63;;
78228;SDS011;74448;49.082;9.152;2024-01-15T08:12:08;9.45;;;4.35;;
78228;SDS011;74448;49.082;9.152;2024-01-15T08:14:37;9.90;;;4.32;;
78228;SDS011;74448;49.082;9.152;2024-01-15T08:17:04;10.13;;;3.90;;
78228;SDS011;74448;49.082;9.152;2024-01-15T08:19:30;7.50;;;3.63;;
78228;SDS011;74448;49.082;9.152;2024-01-15T08:26:51;8.90;;;3.88;;
78228;SDS011;74448;49.082;9.152;2024-01-15T08:29:17;9.85;;;4.25;;
78228;SDS011;74448;49.082;9.152;2024-01-15T08:31:46;12.02;;;4.65;;
78228;SDS011;74448;49.082;9.152;2024-01-15T08:34:13;9.73;;;4.10;;
78228;SDS011;74448;49.082;9.152;2024-01-15T08:36:40;8.25;;;3.92;;
78228;SDS011;74448;49.082;9.152;2024-01-15T08:39:07;6.90;;;3.95;;
78228;SDS011;74448;49.082;9.152;2024-01-15T08:41:35;8.50;;;3.83;;
78228;SDS011;74448;49.082;9.152;2024-01-15T08:44:02;9.73;;;3.83;;
78228;SDS011;74448;49.082;9.152;2024-01-15T08:46:29;7.50;;;3.80;;
78228;SDS011;74448;49.082;9.152;2024-01-15T08:48:55;10.07;;;3.90;;
78228;SDS011;74448;49.082;9.152;2024-01-15T08:51:22;9.35;;;4.03;;
78228;SDS011;74448;49.082;9.152;2024-01-15T08:53:49;9.80;;;4.72;;
78228;SDS011;74448;49.082;9.152;2024-01-15T08:56:15;10.40;;;4.72;;
78228;SDS011;74448;49.082;9.152;2024-01-15T08:58:42;9.63;;;3.67;;
78228;SDS011;74448;49.082;9.152;2024-01-15T09:01:09;9.60;;;4.30;;
78228;SDS011;74448;49.082;9.152;2024-01-15T09:03:35;9.93;;;4.45;;
78228;SDS011;74448;49.082;9.152;2024-01-15T09:06:03;8.73;;;4.50;;
78228;SDS011;74448;49.082;9.152;2024-01-15T09:08:30;7.97;;;3.50;;
78228;SDS011;74448;49.082;9.152;2024-01-15T09:10:57;10.65;;;3.97;;
78228;SDS011;74448;49.082;9.152;2024-01-15T09:13:23;8.45;;;4.75;;
78228;SDS011;74448;49.082;9.152;2024-01-15T09:15:50;11.43;;;4.38;;
78228;SDS011;74448;49.082;9.152;2024-01-15T09:18:16;10.40;;;3.92;;
78228;SDS011;74448;49.082;9.152;2024-01-15T09:20:43;7.63;;;3.47;;
78228;SDS011;74448;49.082;9.152;2024-01-15T09:23:10;8.75;;;4.63;;
78228;SDS011;74448;49.082;9.152;2024-01-15T09:25:36;8.45;;;3.50;;
78228;SDS011;74448;49.082;9.152;2024-01-15T09:28:03;8.10;;;3.95;;
78228;SDS011;74448;49.082;9.152;2024-01-15T09:30:30;8.00;;;3.97;;
78228;SDS011;74448;49.082;9.152;2024-01-15T09:32:57;8.48;;;4.05;;
78228;SDS011;74448;49.082;9.152;2024-01-15T09:35:23;9.02;;;4.13;;
78228;SDS011;74448;49.082;9.152;2024-01-15T09:37:50;8.23;;;4.13;;
78228;SDS011;74448;49.082;9.152;2024-01-15T09:40:17;9.93;;;4.32;;
78228;SDS011;74448;49.082;9.152;2024-01-15T09:42:47;7.28;;;3.80;;
78228;SDS011;74448;49.082;9.152;2024-01-15T09:45:14;9.98;;;4.15;;
78228;SDS011;74448;49.082;9.152;2024-01-15T09:47:41;7.50;;;4.05;;
78228;SDS011;74448;49.082;9.152;2024-01-15T09:50:12;9.98;;;4.43;;
78228;SDS011;74448;49.082;9.152;2024-01-15T09:52:42;9.40;;;4.07;;
78228;SDS011;74448;49.082;9.152;2024-01-15T09:55:10;10.27;;;4.15;;
78228;SDS011;74448;49.082;9.152;2024-01-15T09:57:38;11.05;;;4.18;;
78228;SDS011;74448;49.082;9.152;2024-01-15T10:00:05;9.27;;;4.10;;
78228;SDS011;74448;49.082;9.152;2024-01-15T10:02:33;7.88;;;3.63;;
78228;SDS011;74448;49.082;9.152;2024-01-15T10:05:02;8.25;;;3.38;;
78228;SDS011;74448;49.082;9.152;2024-01-15T10:07:29;8.32;;;4.47;;
78228;SDS011;74448;49.082;9.152;2024-01-15T10:09:58;9.43;;;3.97;;
78228;SDS011;74448;49.082;9.152;2024-01-15T10:12:25;10.00;;;4.07;;
78228;SDS011;74448;49.082;9.152;2024-01-15T10:14:54;8.00;;;3.88;;
78228;SDS011;74448;49.082;9.152;2024-01-15T10:17:23;9.80;;;4.30;;
78228;SDS011;74448;49.082;9.152;2024-01-15T10:19:50;10.63;;;4.05;;
78228;SDS011;74448;49.082;9.152;2024-01-15T10:22:17;9.50;;;3.88;;
78228;SDS011;74448;49.082;9.152;2024-01-15T10:24:44;7.00;;;3.72;;
78228;SDS011;74448;49.082;9.152;2024-01-15T10:27:14;9.52;;;4.45;;
78228;SDS011;74448;49.082;9.152;2024-01-15T10:29:41;8.85;;;3.70;;
78228;SDS011;74448;49.082;9.152;2024-01-15T10:32:08;6.32;;;3.47;;
78228;SDS011;74448;49.082;9.152;2024-01-15T10:34:39;6.93;;;3.38;;
78228;SDS011;74448;49.082;9.152;2024-01-15T10:37:09;8.60;;;3.88;;
78228;SDS011;74448;49.082;9.152;2024-01-15T10:39:36;7.70;;;3.88;;
78228;SDS011;74448;49.082;9.152;2024-01-15T10:42:04;7.05;;;3.70;;
78228;SDS011;74448;49.082;9.152;2024-01-15T10:44:33;8.05;;;3.50;;
78228;SDS011;74448;49.082;9.152;2024-01-15T10:47:00;7.80;;;3.88;;
78228;SDS011;74448;49.082;9.152;2024-01-15T10:49:27;9.18;;;3.78;;
78228;SDS011;74448;49.082;9.152;2024-01-15T10:51:59;9.77;;;4.30;;
78228;SDS011;74448;49.082;9.152;2024-01-15T10:54:27;7.07;;;3.72;;
78228;SDS011;74448;49.082;9.152;2024-01-15T10:59:22;9.35;;;4.05;;
78228;SDS011;74448;49.082;9.152;2024-01-15T11:01:49;8.07;;;3.28;;
78228;SDS011;74448;49.082;9.152;2024-01-15T11:04:21;8.15;;;3.30;;
78228;SDS011;74448;49.082;9.152;2024-01-15T11:06:50;7.68;;;3.25;;
78228;SDS011;74448;49.082;9.152;2024-01-15T11:09:20;7.30;;;2.95;;
78228;SDS011;74448;49.082;9.152;2024-01-15T11:11:47;7.80;;;3.58;;
78228;SDS011;74448;49.082;9.152;2024-01-15T11:17:02;7.95;;;3.00;;
78228;SDS011;74448;49.082;9.152;2024-01-15T11:19:35;9.25;;;3.70;;
78228;SDS011;74448;49.082;9.152;2024-01-15T11:22:10;9.15;;;4.20;;
78228;SDS011;74448;49.082;9.152;2024-01-15T11:24:57;8.40;;;3.90;;
78228;SDS011;74448;49.082;9.152;2024-01-15T11:27:41;8.90;;;3.97;;
78228;SDS011;74448;49.082;9.152;2024-01-15T11:30:11;8.13;;;3.67;;
78228;SDS011;74448;49.082;9.152;2024-01-15T11:32:39;7.07;;;3.38;;
78228;SDS011;74448;49.082;9.152;2024-01-15T11:35:10;7.85;;;3.13;;
78228;SDS011;74448;49.082;9.152;2024-01-15T11:40:21;6.90;;;3.67;;
78228;SDS011;74448;49.082;9.152;2024-01-15T11:42:49;7.25;;;4.13;;
78228;SDS011;74448;49.082;9.152;2024-01-15T11:45:18;8.50;;;3.90;;
78228;SDS011;74448;49.082;9.152;2024-01-15T11:50:21;6.68;;;3.63;;
78228;SDS011;74448;49.082;9.152;2024-01-15T11:52:51;6.55;;;3.38;;
78228;SDS011;74448;49.082;9.152;2024-01-15T11:55:35;6.43;;;3.03;;
78228;SDS011;74448;49.082;9.152;2024-01-15T11:58:08;6.32;;;3.47;;
78228;SDS011;74448;49.082;9.152;2024-01-15T12:00:42;7.07;;;2.72;;
78228;SDS011;74448;49.082;9.152;2024-01-15T12:03:10;8.80;;;3.72;;
78228;SDS011;74448;49.082;9.152;2024-01-15T12:05:38;7.53;;;3.72;;
78228;SDS011;74448;49.082;9.152;2024-01-15T12:08:05;8.35;;;3.72;;
78228;SDS011;74448;49.082;9.152;2024-01-15T12:10:37;6.45;;;2.70;;
78228;SDS011;74448;49.082;9.152;2024-01-15T12:13:05;5.72;;;2.75;;
78228;SDS011;74448;49.082;9.152;2024-01-15T12:15:42;7.43;;;4.15;;
78228;SDS011;74448;49.082;9.152;2024-01-15T12:18:11;7.50;;;2.72;;
78228;SDS011;74448;49.082;9.152;2024-01-15T12:20:39;5.30;;;3.13;;
78228;SDS011;74448;49.082;9.152;2024-01-15T12:25:35;7.30;;;3.28;;
78228;SDS011;74448;49.082;9.152;2024-01-15T12:28:03;4.97;;;2.67;;
78228;SDS011;74448;49.082;9.152;2024-01-15T12:30:30;6.45;;;3.20;;
78228;SDS011;74448;49.082;9.152;2024-01-15T12:33:02;9.27;;;3.88;;
78228;SDS011;74448;49.082;9.152;2024-01-15T12:35:36;6.05;;;3.22;;
78228;SDS011;74448;49.082;9.152;2024-01-15T12:38:03;5.10;;;3.15;;
78228;SDS011;74448;49.082;9.152;2024-01-15T12:40:30;5.82;;;2.83;;
78228;SDS011;74448;49.082;9.152;2024-01-15T12:42:59;8.05;;;3.83;;
78228;SDS011;74448;49.082;9.152;2024-01-15T12:45:26;6.15;;;2.80;;
78228;SDS011;74448;49.082;9.152;2024-01-15T12:47:52;5.07;;;3.00;;
78228;SDS011;74448;49.082;9.152;2024-01-15T12:50:23;9.10;;;3.70;;
78228;SDS011;74448;49.082;9.152;2024-01-15T12:52:50;5.90;;;2.88;;
78228;SDS011;74448;49.082;9.152;2024-01-15T12:55:17;5.03;;;2.63;;
78228;SDS011;74448;49.082;9.152;2024-01-15T12:57:44;4.50;;;2.80;;
78228;SDS011;74448;49.082;9.152;2024-01-15T13:00:12;5.78;;;2.40;;
78228;SDS011;74448;49.082;9.152;2024-01-15T13:02:41;6.95;;;3.47;;
78228;SDS011;74448;49.082;9.152;2024-01-15T13:05:09;6.68;;;3.45;;
78228;SDS011;74448;49.082;9.152;2024-01-15T13:07:38;6.20;;;3.13;;
78228;SDS011;74448;49.082;9.152;2024-01-15T13:10:05;5.35;;;3.08;;
78228;SDS011;74448;49.082;9.152;2024-01-15T13:12:33;5.38;;;3.28;;
78228;SDS011;74448;49.082;9.152;2024-01-15T13:15:00;5.57;;;2.85;;
78228;SDS011;74448;49.082;9.152;2024-01-15T13:17:30;6.07;;;2.80;;
78228;SDS011;74448;49.082;9.152;2024-01-15T13:19:57;7.95;;;3.30;;
78228;SDS011;74448;49.082;9.152;2024-01-15T13:22:24;7.28;;;3.38;;
78228;SDS011;74448;49.082;9.152;2024-01-15T13:24:56;6.63;;;2.63;;
78228;SDS011;74448;49.082;9.152;2024-01-15T13:27:23;6.25;;;2.65;;
78228;SDS011;74448;49.082;9.152;2024-01-15T13:29:49;5.35;;;2.88;;
78228;SDS011;74448;49.082;9.152;2024-01-15T13:32:24;8.32;;;3.08;;
78228;SDS011;74448;49.082;9.152;2024-01-15T13:34:56;7.15;;;3.17;;
78228;SDS011;74448;49.082;9.152;2024-01-15T13:37:23;6.00;;;2.80;;
78228;SDS011;74448;49.082;9.152;2024-01-15T13:39:51;5.43;;;2.80;;
78228;SDS011;74448;49.082;9.152;2024-01-15T13:42:19;6.10;;;3.03;;
78228;SDS011;74448;49.082;9.152;2024-01-15T13:44:48;6.72;;;3.10;;
78228;SDS011;74448;49.082;9.152;2024-01-15T13:47:14;5.40;;;3.15;;
78228;SDS011;74448;49.082;9.152;2024-01-15T13:49:41;6.88;;;3.13;;
78228;SDS011;74448;49.082;9.152;2024-01-15T13:52:07;6.07;;;3.05;;
78228;SDS011;74448;49.082;9.152;2024-01-15T13:54:34;7.18;;;3.03;;
78228;SDS011;74448;49.082;9.152;2024-01-15T13:57:15;6.95;;;3.55;;
78228;SDS011;74448;49.082;9.152;2024-01-15T13:59:42;5.97;;;2.75;;
78228;SDS011;74448;49.082;9.152;2024-01-15T14:02:08;8.63;;;3.67;;
78228;SDS011;74448;49.082;9.152;2024-01-15T14:04:37;4.28;;;2.75;;
78228;SDS011;74448;49.082;9.152;2024-01-15T14:07:04;6.60;;;2.72;;
78228;SDS011;74448;49.082;9.152;2024-01-15T14:09:31;3.92;;;2.47;;
78228;SDS011;74448;49.082;9.152;2024-01-15T14:11:58;4.40;;;2.45;;
78228;SDS011;74448;49.082;9.152;2024-01-15T14:14:25;6.32;;;2.60;;
78228;SDS011;74448;49.082;9.152;2024-01-15T14:16:52;4.45;;;2.22;;
78228;SDS011;74448;49.082;9.152;2024-01-15T14:19:18;5.47;;;2.78;;
78228;SDS011;74448;49.082;9.152;2024-01-15T14:21:47;7.88;;;3.05;;
78228;SDS011;74448;49.082;9.152;2024-01-15T14:24:14;5.18;;;2.97;;
78228;SDS011;74448;49.082;9.152;2024-01-15T14:26:42;5.10;;;2.38;;
78228;SDS011;74448;49.082;9.152;2024-01-15T14:29:09;5.05;;;2.75;;
78228;SDS011;74448;49.082;9.152;2024-01-15T14:31:35;5.75;;;2.60;;
78228;SDS011;74448;49.082;9.152;2024-01-15T14:34:02;4.97;;;3.05;;
78228;SDS011;74448;49.082;9.152;2024-01-15T14:36:29;6.13;;;2.53;;
78228;SDS011;74448;49.082;9.152;2024-01-15T14:38:56;6.20;;;2.80;;
78228;SDS011;74448;49.082;9.152;2024-01-15T14:41:23;4.85;;;2.78;;
78228;SDS011;74448;49.082;9.152;2024-01-15T14:43:50;5.57;;;3.22;;
78228;SDS011;74448;49.082;9.152;2024-01-15T14:46:16;7.05;;;3.10;;
78228;SDS011;74448;49.082;9.152;2024-01-15T14:48:43;6.10;;;2.70;;
78228;SDS011;74448;49.082;9.152;2024-01-15T14:51:11;6.78;;;3.53;;
78228;SDS011;74448;49.082;9.152;2024-01-15T14:53:38;5.60;;;2.75;;
78228;SDS011;74448;49.082;9.152;2024-01-15T14:56:05;5.95;;;2.30;;
78228;SDS011;74448;49.082;9.152;2024-01-15T14:58:32;5.57;;;3.28;;
78228;SDS011;74448;49.082;9.152;2024-01-15T15:00:58;7.00;;;2.97;;
78228;SDS011;74448;49.082;9.152;2024-01-15T15:03:25;7.72;;;2.95;;
78228;SDS011;74448;49.082;9.152;2024-01-15T15:08:19;6.20;;;2.78;;